sensor_id;sensor_type;location;lat;lon;timestamp;pressure;altitude;pressure_sealevel;temperature;humidity
7940;BME280;4015;48.888;9.226;2023-02-19T00:01:10;157662.28;;;9.62;100.00
7940;BME280;4015;48.888;9.226;2023-02-19T00:03:36;157653.31;;;9.59;100.00
7940;BME280;4015;48.888;9.226;2023-02-19T00:06:04;157654.59;;;9.59;100.00
7940;BME280;4015;48.888;9.226;2023-02-19T00:08:30;157687.78;;;9.72;100.00
7940;BME280;4015;48.888;9.226;2023-02-19T00:11:07;157682.69;;;9.70;100.00
7940;BME280;4015;48.888;9.226;2023-02-19T00:13:39;157677.59;;;9.68;100.00
7940;BME280;4015;48.888;9.226;2023-02-19T00:16:09;157686.50;;;9.72;100.00
7940;BME280;4015;48.888;9.226;2023-02-19T00:18:36;157686.50;;;9.72;100.00
7940;BME280;4015;48.888;9.226;2023-02-19T00:21:02;157718.41;;;9.85;99.94
7940;BME280;4015;48.888;9.226;2023-02-19T00:23:27;157695.47;;;9.76;99.96
7940;BME280;4015;48.888;9.226;2023-02-19T00:25:53;157703.09;;;9.79;99.93
7940;BME280;4015;48.888;9.226;2023-02-19T00:28:19;157690.31;;;9.73;100.00
7940;BME280;4015;48.888;9.226;2023-02-19T00:30:45;157706.91;;;9.80;99.98
7940;BME280;4015;48.888;9.226;2023-02-19T00:33:10;157729.94;;;9.89;99.59
7940;BME280;4015;48.888;9.226;2023-02-19T00:35:36;157723.56;;;9.87;99.53
7940;BME280;4015;48.888;9.226;2023-02-19T00:38:02;157717.16;;;9.84;100.00
7940;BME280;4015;48.888;9.226;2023-02-19T00:40:27;157727.38;;;9.88;99.82
7940;BME280;4015;48.888;9.226;2023-02-19T00:42:52;157718.41;;;9.85;99.78
7940;BME280;4015;48.888;9.226;2023-02-19T00:45:18;157720.97;;;9.86;99.68
7940;BME280;4015;48.888;9.226;2023-02-19T00:47:43;157729.94;;;9.89;99.68
7940;BME280;4015;48.888;9.226;2023-02-19T00:50:08;157708.25;;;9.81;100.00
7940;BME280;4015;48.888;9.226;2023-02-19T00:52:34;157714.59;;;9.83;99.94
7940;BME280;4015;48.888;9.226;2023-02-19T00:54:59;157695.47;;;9.76;100.00
7940;BME280;4015;48.888;9.226;2023-02-19T00:57:25;157709.50;;;9.81;99.88
7940;BME280;4015;48.888;9.226;2023-02-19T00:59:50;157740.16;;;9.93;99.63
7940;BME280;4015;48.888;9.226;2023-02-19T01:02:15;157719.69;;;9.85;99.85
7940;BME280;4015;48.888;9.226;2023-02-19T01:04:40;157719.69;;;9.85;99.06
7940;BME280;4015;48.888;9.226;2023-02-19T01:07:06;157712.06;;;9.82;99.41
7940;BME280;4015;48.888;9.226;2023-02-19T01:09:31;157715.88;;;9.84;99.49
7940;BME280;4015;48.888;9.226;2023-02-19T01:11:56;157699.28;;;9.77;99.66
7940;BME280;4015;48.888;9.226;2023-02-19T01:14:22;157700.56;;;9.78;100.00
7940;BME280;4015;48.888;9.226;2023-02-19T01:16:47;157719.69;;;9.85;99.60
7940;BME280;4015;48.888;9.226;2023-02-19T01:19:12;157733.75;;;9.91;99.56
7940;BME280;4015;48.888;9.226;2023-02-19T01:21:38;157718.41;;;9.85;99.63
7940;BME280;4015;48.888;9.226;2023-02-19T01:24:04;157722.25;;;9.86;99.59
7940;BME280;4015;48.888;9.226;2023-02-19T01:26:31;157710.78;;;9.82;99.96
7940;BME280;4015;48.888;9.226;2023-02-19T01:28:58;157703.09;;;9.79;100.00
7940;BME280;4015;48.888;9.226;2023-02-19T01:31:24;157708.25;;;9.81;100.00
7940;BME280;4015;48.888;9.226;2023-02-19T01:33:53;157682.69;;;9.70;100.00
7940;BME280;4015;48.888;9.226;2023-02-19T01:36:18;157708.25;;;9.81;100.00
7940;BME280;4015;48.888;9.226;2023-02-19T01:38:44;157713.34;;;9.83;100.00
7940;BME280;4015;48.888;9.226;2023-02-19T01:41:16;157731.19;;;9.90;99.85
7940;BME280;4015;48.888;9.226;2023-02-19T01:44:03;157713.34;;;9.83;100.00
7940;BME280;4015;48.888;9.226;2023-02-19T01:46:32;157733.75;;;9.91;100.00
7940;BME280;4015;48.888;9.226;2023-02-19T01:49:10;157714.59;;;9.83;100.00
7940;BME280;4015;48.888;9.226;2023-02-19T01:51:39;157720.97;;;9.86;100.00
7940;BME280;4015;48.888;9.226;2023-02-19T01:54:07;157720.97;;;9.86;100.00
7940;BME280;4015;48.888;9.226;2023-02-19T01:56:35;157720.97;;;9.86;100.00
7940;BME280;4015;48.888;9.226;2023-02-19T01:59:02;157746.53;;;9.96;100.00
7940;BME280;4015;48.888;9.226;2023-02-19T02:01:28;157735.03;;;9.91;100.00
7940;BME280;4015;48.888;9.226;2023-02-19T02:03:54;157737.56;;;9.92;100.00
7940;BME280;4015;48.888;9.226;2023-02-19T02:06:30;157722.25;;;9.86;100.00
7940;BME280;4015;48.888;9.226;2023-02-19T02:08:58;157719.69;;;9.85;100.00
7940;BME280;4015;48.888;9.226;2023-02-19T02:11:48;157708.25;;;9.81;100.00
7940;BME280;4015;48.888;9.226;2023-02-19T02:14:16;157704.38;;;9.79;100.00
7940;BME280;4015;48.888;9.226;2023-02-19T02:16:59;157686.50;;;9.72;100.00
7940;BME280;4015;48.888;9.226;2023-02-19T02:19:33;157713.34;;;9.83;100.00
7940;BME280;4015;48.888;9.226;2023-02-19T02:22:23;157685.22;;;9.71;100.00
7940;BME280;4015;48.888;9.226;2023-02-19T02:33:30;157669.91;;;9.65;100.00
7940;BME280;4015;48.888;9.226;2023-02-19T02:35:59;157667.38;;;9.64;100.00
7940;BME280;4015;48.888;9.226;2023-02-19T02:38:32;157655.88;;;9.60;100.00
7940;BME280;4015;48.888;9.226;2023-02-19T02:40:59;157658.41;;;9.61;100.00
7940;BME280;4015;48.888;9.226;2023-02-19T02:43:25;157644.38;;;9.55;100.00
7940;BME280;4015;48.888;9.226;2023-02-19T02:45:51;157638.00;;;9.53;100.00
7940;BME280;4015;48.888;9.226;2023-02-19T02:53:48;157630.38;;;9.50;100.00
7940;BME280;4015;48.888;9.226;2023-02-19T02:56:34;157652.03;;;9.58;100.00
7940;BME280;4015;48.888;9.226;2023-02-19T02:59:01;157645.69;;;9.56;100.00
7940;BME280;4015;48.888;9.226;2023-02-19T03:01:36;157625.22;;;9.48;100.00
7940;BME280;4015;48.888;9.226;2023-02-19T03:07:02;157625.22;;;9.48;100.00
7940;BME280;4015;48.888;9.226;2023-02-19T03:09:38;157623.94;;;9.47;100.00
7940;BME280;4015;48.888;9.226;2023-02-19T03:12:10;157615.03;;;9.43;100.00
7940;BME280;4015;48.888;9.226;2023-02-19T03:14:59;157616.31;;;9.44;100.00
7940;BME280;4015;48.888;9.226;2023-02-19T03:17:51;157606.09;;;9.40;100.00
7940;BME280;4015;48.888;9.226;2023-02-19T03:20:39;157623.94;;;9.47;100.00
7940;BME280;4015;48.888;9.226;2023-02-19T03:23:08;157611.19;;;9.42;100.00
7940;BME280;4015;48.888;9.226;2023-02-19T03:25:35;157597.13;;;9.36;100.00
7940;BME280;4015;48.888;9.226;2023-02-19T03:28:24;157590.78;;;9.34;100.00
7940;BME280;4015;48.888;9.226;2023-02-19T03:31:14;157597.13;;;9.36;100.00
7940;BME280;4015;48.888;9.226;2023-02-19T03:33:42;157615.03;;;9.43;100.00
7940;BME280;4015;48.888;9.226;2023-02-19T03:36:11;157629.09;;;9.49;100.00
7940;BME280;4015;48.888;9.226;2023-02-19T03:38:48;157631.63;;;9.50;100.00
7940;BME280;4015;48.888;9.226;2023-02-19T03:41:24;157650.78;;;9.58;100.00
7940;BME280;4015;48.888;9.226;2023-02-19T03:44:16;157646.97;;;9.56;100.00
7940;BME280;4015;48.888;9.226;2023-02-19T03:46:59;157648.22;;;9.57;100.00
7940;BME280;4015;48.888;9.226;2023-02-19T03:52:15;157661.00;;;9.62;100.00
7940;BME280;4015;48.888;9.226;2023-02-19T03:55:05;157668.63;;;9.65;100.00
7940;BME280;4015;48.888;9.226;2023-02-19T04:00:08;157653.31;;;9.59;100.00
7940;BME280;4015;48.888;9.226;2023-02-19T04:02:51;157672.47;;;9.66;100.00
7940;BME280;4015;48.888;9.226;2023-02-19T04:05:31;157672.47;;;9.66;100.00
7940;BME280;4015;48.888;9.226;2023-02-19T04:08:03;157631.63;;;9.50;100.00
7940;BME280;4015;48.888;9.226;2023-02-19T04:10:30;157631.63;;;9.50;100.00
7940;BME280;4015;48.888;9.226;2023-02-19T04:13:03;157631.63;;;9.50;100.00
7940;BME280;4015;48.888;9.226;2023-02-19T04:15:32;157594.59;;;9.35;99.94
7940;BME280;4015;48.888;9.226;2023-02-19T04:18:06;157597.13;;;9.36;99.85
7940;BME280;4015;48.888;9.226;2023-02-19T04:20:36;157602.28;;;9.38;99.69
7940;BME280;4015;48.888;9.226;2023-02-19T04:23:03;157588.22;;;9.33;99.30
7940;BME280;4015;48.888;9.226;2023-02-19T04:25:29;157578.00;;;9.29;98.98
7940;BME280;4015;48.888;9.226;2023-02-19T04:27:55;157597.13;;;9.36;99.10
7940;BME280;4015;48.888;9.226;2023-02-19T04:30:20;157556.31;;;9.20;98.76
7940;BME280;4015;48.888;9.226;2023-02-19T04:32:46;157571.63;;;9.26;99.87
7940;BME280;4015;48.888;9.226;2023-02-19T04:35:11;157588.22;;;9.33;99.37
7940;BME280;4015;48.888;9.226;2023-02-19T04:37:36;157580.53;;;9.30;99.66
7940;BME280;4015;48.888;9.226;2023-02-19T04:40:02;157580.53;;;9.30;99.38
7940;BME280;4015;48.888;9.226;2023-02-19T04:42:27;157586.94;;;9.32;98.98
7940;BME280;4015;48.888;9.226;2023-02-19T04:44:52;157579.28;;;9.29;98.71
7940;BME280;4015;48.888;9.226;2023-02-19T04:47:18;157552.50;;;9.18;98.17
7940;BME280;4015;48.888;9.226;2023-02-19T04:49:44;157546.09;;;9.16;98.62
7940;BME280;4015;48.888;9.226;2023-02-19T04:52:09;157529.50;;;9.09;98.90
7940;BME280;4015;48.888;9.226;2023-02-19T04:54:35;157526.97;;;9.08;98.92
7940;BME280;4015;48.888;9.226;2023-02-19T04:57:00;157563.97;;;9.23;98.88
7940;BME280;4015;48.888;9.226;2023-02-19T04:59:26;157530.78;;;9.10;98.54
7940;BME280;4015;48.888;9.226;2023-02-19T05:01:51;157528.25;;;9.09;98.70
7940;BME280;4015;48.888;9.226;2023-02-19T05:04:16;157510.38;;;9.02;98.90
7940;BME280;4015;48.888;9.226;2023-02-19T05:06:42;157520.59;;;9.06;99.29
7940;BME280;4015;48.888;9.226;2023-02-19T05:09:07;157496.34;;;8.96;99.65
7940;BME280;4015;48.888;9.226;2023-02-19T05:11:33;157489.97;;;8.94;98.93
7940;BME280;4015;48.888;9.226;2023-02-19T05:13:58;157473.38;;;8.87;99.25
7940;BME280;4015;48.888;9.226;2023-02-19T05:16:23;157479.75;;;8.89;99.26
7940;BME280;4015;48.888;9.226;2023-02-19T05:18:49;157482.28;;;8.90;98.10
7940;BME280;4015;48.888;9.226;2023-02-19T05:21:14;157472.13;;;8.86;98.51
7940;BME280;4015;48.888;9.226;2023-02-19T05:23:40;157478.47;;;8.89;98.77
7940;BME280;4015;48.888;9.226;2023-02-19T05:26:13;157492.50;;;8.95;99.02
7940;BME280;4015;48.888;9.226;2023-02-19T05:28:42;157465.72;;;8.84;98.91
7940;BME280;4015;48.888;9.226;2023-02-19T05:31:08;157491.25;;;8.94;98.86
7940;BME280;4015;48.888;9.226;2023-02-19T05:33:33;157463.16;;;8.83;98.34
7940;BME280;4015;48.888;9.226;2023-02-19T05:36:04;157460.63;;;8.82;98.83
7940;BME280;4015;48.888;9.226;2023-02-19T05:38:30;157460.63;;;8.82;99.13
7940;BME280;4015;48.888;9.226;2023-02-19T05:40:55;157446.59;;;8.76;99.09
7940;BME280;4015;48.888;9.226;2023-02-19T05:43:20;157428.72;;;8.69;98.79
7940;BME280;4015;48.888;9.226;2023-02-19T05:45:46;157427.44;;;8.69;99.44
7940;BME280;4015;48.888;9.226;2023-02-19T05:48:11;157426.19;;;8.68;98.81
7940;BME280;4015;48.888;9.226;2023-02-19T05:50:37;157414.69;;;8.63;98.58
7940;BME280;4015;48.888;9.226;2023-02-19T05:53:03;157442.75;;;8.75;98.75
7940;BME280;4015;48.888;9.226;2023-02-19T05:55:33;157450.41;;;8.78;97.79
7940;BME280;4015;48.888;9.226;2023-02-19T05:57:59;157450.41;;;8.78;98.04
7940;BME280;4015;48.888;9.226;2023-02-19T06:00:25;157432.53;;;8.71;97.07
7940;BME280;4015;48.888;9.226;2023-02-19T06:02:51;157432.53;;;8.71;96.84
7940;BME280;4015;48.888;9.226;2023-02-19T06:05:17;157423.59;;;8.67;96.73
7940;BME280;4015;48.888;9.226;2023-02-19T06:07:42;157408.28;;;8.61;96.14
7940;BME280;4015;48.888;9.226;2023-02-19T06:10:09;157401.91;;;8.58;96.46
7940;BME280;4015;48.888;9.226;2023-02-19T06:12:35;157403.19;;;8.59;96.34
7940;BME280;4015;48.888;9.226;2023-02-19T06:15:02;157407.00;;;8.60;96.90
7940;BME280;4015;48.888;9.226;2023-02-19T06:17:28;157408.28;;;8.61;95.74
7940;BME280;4015;48.888;9.226;2023-02-19T06:19:54;157412.16;;;8.62;95.67
7940;BME280;4015;48.888;9.226;2023-02-19T06:22:19;157413.41;;;8.63;95.54
7940;BME280;4015;48.888;9.226;2023-02-19T06:24:46;157415.97;;;8.64;95.34
7940;BME280;4015;48.888;9.226;2023-02-19T06:27:11;157418.50;;;8.65;94.87
7940;BME280;4015;48.888;9.226;2023-02-19T06:29:36;157424.91;;;8.68;94.29
7940;BME280;4015;48.888;9.226;2023-02-19T06:32:03;157436.34;;;8.72;94.44
7940;BME280;4015;48.888;9.226;2023-02-19T06:34:29;157442.75;;;8.75;93.72
7940;BME280;4015;48.888;9.226;2023-02-19T06:36:54;157454.22;;;8.79;93.73
7940;BME280;4015;48.888;9.226;2023-02-19T06:39:19;157438.91;;;8.73;93.31
7940;BME280;4015;48.888;9.226;2023-02-19T06:41:45;157460.63;;;8.82;92.63
7940;BME280;4015;48.888;9.226;2023-02-19T06:44:10;157464.44;;;8.83;92.14
7940;BME280;4015;48.888;9.226;2023-02-19T06:46:35;157463.16;;;8.83;91.88
7940;BME280;4015;48.888;9.226;2023-02-19T06:49:03;157464.44;;;8.83;91.74
7940;BME280;4015;48.888;9.226;2023-02-19T06:51:28;157465.72;;;8.84;91.66
7940;BME280;4015;48.888;9.226;2023-02-19T06:53:54;157474.66;;;8.87;91.40
7940;BME280;4015;48.888;9.226;2023-02-19T06:56:22;157479.75;;;8.89;91.24
7940;BME280;4015;48.888;9.226;2023-02-19T06:58:49;157487.44;;;8.93;90.20
7940;BME280;4015;48.888;9.226;2023-02-19T07:01:15;157483.56;;;8.91;90.21
7940;BME280;4015;48.888;9.226;2023-02-19T07:03:40;157492.50;;;8.95;90.20
7940;BME280;4015;48.888;9.226;2023-02-19T07:06:06;157500.16;;;8.98;90.13
7940;BME280;4015;48.888;9.226;2023-02-19T07:08:31;157510.38;;;9.02;90.14
7940;BME280;4015;48.888;9.226;2023-02-19T07:10:57;157516.72;;;9.04;90.13
7940;BME280;4015;48.888;9.226;2023-02-19T07:13:24;157514.19;;;9.03;89.72
7940;BME280;4015;48.888;9.226;2023-02-19T07:15:50;157516.72;;;9.04;90.11
7940;BME280;4015;48.888;9.226;2023-02-19T07:18:16;157525.69;;;9.08;90.55
7940;BME280;4015;48.888;9.226;2023-02-19T07:20:41;157542.28;;;9.14;90.79
7940;BME280;4015;48.888;9.226;2023-02-19T07:23:06;157538.47;;;9.13;90.62
7940;BME280;4015;48.888;9.226;2023-02-19T07:25:32;157532.06;;;9.10;90.96
7940;BME280;4015;48.888;9.226;2023-02-19T07:27:57;157544.81;;;9.15;90.59
7940;BME280;4015;48.888;9.226;2023-02-19T07:30:22;157557.59;;;9.21;90.70
7940;BME280;4015;48.888;9.226;2023-02-19T07:32:47;157549.91;;;9.17;90.29
7940;BME280;4015;48.888;9.226;2023-02-19T07:35:13;157569.09;;;9.25;89.57
7940;BME280;4015;48.888;9.226;2023-02-19T07:37:39;157574.19;;;9.27;90.07
7940;BME280;4015;48.888;9.226;2023-02-19T07:40:05;157556.31;;;9.20;90.26
7940;BME280;4015;48.888;9.226;2023-02-19T07:42:31;157549.91;;;9.17;89.58
7940;BME280;4015;48.888;9.226;2023-02-19T07:44:56;157561.41;;;9.22;89.57
7940;BME280;4015;48.888;9.226;2023-02-19T07:47:22;157560.13;;;9.22;89.47
7940;BME280;4015;48.888;9.226;2023-02-19T07:49:48;157544.81;;;9.15;90.94
7940;BME280;4015;48.888;9.226;2023-02-19T07:52:13;157544.81;;;9.15;91.68
7940;BME280;4015;48.888;9.226;2023-02-19T07:54:38;157552.50;;;9.18;91.98
7940;BME280;4015;48.888;9.226;2023-02-19T07:57:04;157551.22;;;9.18;93.23
7940;BME280;4015;48.888;9.226;2023-02-19T07:59:29;157546.09;;;9.16;90.86
7940;BME280;4015;48.888;9.226;2023-02-19T08:01:54;157555.06;;;9.19;90.06
7940;BME280;4015;48.888;9.226;2023-02-19T08:04:38;157558.88;;;9.21;90.84
7940;BME280;4015;48.888;9.226;2023-02-19T08:07:03;157557.59;;;9.21;90.22
7940;BME280;4015;48.888;9.226;2023-02-19T08:09:29;157557.59;;;9.21;90.24
7940;BME280;4015;48.888;9.226;2023-02-19T08:11:55;157572.91;;;9.27;90.26
7940;BME280;4015;48.888;9.226;2023-02-19T08:14:39;157578.00;;;9.29;89.39
7940;BME280;4015;48.888;9.226;2023-02-19T08:17:04;157581.88;;;9.30;89.71
7940;BME280;4015;48.888;9.226;2023-02-19T08:19:29;157593.31;;;9.35;89.28
7940;BME280;4015;48.888;9.226;2023-02-19T08:21:54;157597.13;;;9.36;89.44
7940;BME280;4015;48.888;9.226;2023-02-19T08:24:20;157607.34;;;9.40;88.94
7940;BME280;4015;48.888;9.226;2023-02-19T08:26:45;157620.13;;;9.45;90.08
7940;BME280;4015;48.888;9.226;2023-02-19T08:29:11;157569.09;;;9.25;90.51
7940;BME280;4015;48.888;9.226;2023-02-19T08:31:36;157570.38;;;9.26;91.33
7940;BME280;4015;48.888;9.226;2023-02-19T08:34:02;157555.06;;;9.19;90.43
7940;BME280;4015;48.888;9.226;2023-02-19T08:36:27;157558.88;;;9.21;90.25
7940;BME280;4015;48.888;9.226;2023-02-19T08:38:52;157562.69;;;9.23;90.73
7940;BME280;4015;48.888;9.226;2023-02-19T08:41:18;157556.31;;;9.20;89.89
7940;BME280;4015;48.888;9.226;2023-02-19T08:43:43;157586.94;;;9.32;89.86
7940;BME280;4015;48.888;9.226;2023-02-19T08:46:09;157611.19;;;9.42;88.44
7940;BME280;4015;48.888;9.226;2023-02-19T08:48:36;157617.59;;;9.44;88.40
7940;BME280;4015;48.888;9.226;2023-02-19T08:51:05;157604.81;;;9.39;87.67
7940;BME280;4015;48.888;9.226;2023-02-19T08:53:33;157601.00;;;9.38;88.44
7940;BME280;4015;48.888;9.226;2023-02-19T08:56:04;157620.13;;;9.45;87.72
7940;BME280;4015;48.888;9.226;2023-02-19T08:58:29;157618.88;;;9.45;86.76
7940;BME280;4015;48.888;9.226;2023-02-19T09:00:56;157626.50;;;9.48;87.80
7940;BME280;4015;48.888;9.226;2023-02-19T09:03:22;157641.81;;;9.54;87.62
7940;BME280;4015;48.888;9.226;2023-02-19T09:05:47;157653.31;;;9.59;86.73
7940;BME280;4015;48.888;9.226;2023-02-19T09:08:12;157668.63;;;9.65;86.19
7940;BME280;4015;48.888;9.226;2023-02-19T09:10:38;157689.06;;;9.73;85.62
7940;BME280;4015;48.888;9.226;2023-02-19T09:13:04;157710.78;;;9.82;86.34
7940;BME280;4015;48.888;9.226;2023-02-19T09:15:29;157715.88;;;9.84;84.28
7940;BME280;4015;48.888;9.226;2023-02-19T09:17:55;157737.56;;;9.92;85.65
7940;BME280;4015;48.888;9.226;2023-02-19T09:20:20;157786.09;;;10.12;84.14
7940;BME280;4015;48.888;9.226;2023-02-19T09:22:45;157812.91;;;10.22;83.27
7940;BME280;4015;48.888;9.226;2023-02-19T09:25:11;157875.53;;;10.47;85.12
7940;BME280;4015;48.888;9.226;2023-02-19T09:27:36;157828.28;;;10.29;82.55
7940;BME280;4015;48.888;9.226;2023-02-19T09:30:02;157796.31;;;10.16;83.53
7940;BME280;4015;48.888;9.226;2023-02-19T09:32:29;157823.19;;;10.26;84.18
7940;BME280;4015;48.888;9.226;2023-02-19T09:34:55;157789.94;;;10.13;83.96
7940;BME280;4015;48.888;9.226;2023-02-19T09:37:24;157761.84;;;10.02;82.79
7940;BME280;4015;48.888;9.226;2023-02-19T09:39:50;157731.19;;;9.90;84.19
7940;BME280;4015;48.888;9.226;2023-02-19T09:42:21;157715.88;;;9.84;84.23
7940;BME280;4015;48.888;9.226;2023-02-19T09:44:51;157747.78;;;9.96;83.95
7940;BME280;4015;48.888;9.226;2023-02-19T09:47:28;157754.16;;;9.99;82.74
7940;BME280;4015;48.888;9.226;2023-02-19T09:49:58;157809.09;;;10.21;82.46
7940;BME280;4015;48.888;9.226;2023-02-19T09:52:30;157880.63;;;10.49;79.96
7940;BME280;4015;48.888;9.226;2023-02-19T09:55:01;157922.81;;;10.66;80.24
7940;BME280;4015;48.888;9.226;2023-02-19T09:57:29;158026.31;;;11.07;77.25
7940;BME280;4015;48.888;9.226;2023-02-19T10:00:05;158117.00;;;11.44;76.72
7940;BME280;4015;48.888;9.226;2023-02-19T10:02:31;158178.38;;;11.68;74.98
7940;BME280;4015;48.888;9.226;2023-02-19T10:04:57;158151.56;;;11.57;73.42
7940;BME280;4015;48.888;9.226;2023-02-19T10:07:25;158170.72;;;11.65;76.11
7940;BME280;4015;48.888;9.226;2023-02-19T10:12:39;158157.94;;;11.60;73.64
7940;BME280;4015;48.888;9.226;2023-02-19T10:18:05;158229.59;;;11.88;74.65
7940;BME280;4015;48.888;9.226;2023-02-19T10:20:31;158233.41;;;11.90;72.04
7940;BME280;4015;48.888;9.226;2023-02-19T10:23:05;158193.72;;;11.74;73.08
7940;BME280;4015;48.888;9.226;2023-02-19T10:25:32;158211.66;;;11.81;72.46
7940;BME280;4015;48.888;9.226;2023-02-19T10:27:58;158211.66;;;11.81;73.87
7940;BME280;4015;48.888;9.226;2023-02-19T10:30:28;158196.25;;;11.75;72.21
7940;BME280;4015;48.888;9.226;2023-02-19T10:33:08;158124.72;;;11.47;72.64
7940;BME280;4015;48.888;9.226;2023-02-19T10:35:36;158142.59;;;11.54;73.55
7940;BME280;4015;48.888;9.226;2023-02-19T10:38:03;158148.97;;;11.56;73.57
7940;BME280;4015;48.888;9.226;2023-02-19T10:40:31;158159.22;;;11.60;73.18
7940;BME280;4015;48.888;9.226;2023-02-19T10:43:00;158141.31;;;11.53;72.68
7940;BME280;4015;48.888;9.226;2023-02-19T10:45:45;158067.19;;;11.24;73.75
7940;BME280;4015;48.888;9.226;2023-02-19T10:48:23;158087.66;;;11.32;73.79
7940;BME280;4015;48.888;9.226;2023-02-19T10:50:54;158087.66;;;11.32;73.36
7940;BME280;4015;48.888;9.226;2023-02-19T10:53:23;158110.66;;;11.41;72.99
7940;BME280;4015;48.888;9.226;2023-02-19T10:56:12;158095.31;;;11.35;74.04
7940;BME280;4015;48.888;9.226;2023-02-19T10:58:38;158155.38;;;11.59;73.04
7940;BME280;4015;48.888;9.226;2023-02-19T11:01:16;158195.00;;;11.75;73.33
7940;BME280;4015;48.888;9.226;2023-02-19T11:03:44;158257.69;;;12.00;72.42
7940;BME280;4015;48.888;9.226;2023-02-19T11:06:10;158209.06;;;11.80;72.48
7940;BME280;4015;48.888;9.226;2023-02-19T11:08:53;158128.53;;;11.48;72.56
7940;BME280;4015;48.888;9.226;2023-02-19T11:11:24;158085.06;;;11.31;74.10
7940;BME280;4015;48.888;9.226;2023-02-19T11:13:50;158091.47;;;11.33;74.82
7940;BME280;4015;48.888;9.226;2023-02-19T11:16:16;157999.47;;;10.97;75.87
7940;BME280;4015;48.888;9.226;2023-02-19T11:18:41;158033.97;;;11.11;77.31
7940;BME280;4015;48.888;9.226;2023-02-19T11:21:23;158010.97;;;11.01;77.51
7940;BME280;4015;48.888;9.226;2023-02-19T11:23:49;157947.09;;;10.76;77.73
7940;BME280;4015;48.888;9.226;2023-02-19T11:26:21;157971.34;;;10.86;78.94
7940;BME280;4015;48.888;9.226;2023-02-19T11:28:55;157996.94;;;10.96;76.92
7940;BME280;4015;48.888;9.226;2023-02-19T11:31:26;158053.13;;;11.18;76.01
7940;BME280;4015;48.888;9.226;2023-02-19T11:34:02;158120.88;;;11.45;74.08
7940;BME280;4015;48.888;9.226;2023-02-19T11:36:37;158210.38;;;11.81;71.87
7940;BME280;4015;48.888;9.226;2023-02-19T11:39:26;158609.50;;;13.40;69.19
7940;BME280;4015;48.888;9.226;2023-02-19T11:47:54;158567.28;;;13.23;66.74
7940;BME280;4015;48.888;9.226;2023-02-19T11:55:33;158402.22;;;12.57;70.08
7940;BME280;4015;48.888;9.226;2023-02-19T11:58:37;158239.78;;;11.93;69.92
7940;BME280;4015;48.888;9.226;2023-02-19T12:01:22;158238.50;;;11.92;72.34
7940;BME280;4015;48.888;9.226;2023-02-19T12:03:52;158252.56;;;11.98;71.75
7940;BME280;4015;48.888;9.226;2023-02-19T12:14:57;158303.72;;;12.18;70.22
7940;BME280;4015;48.888;9.226;2023-02-19T12:23:32;158225.72;;;11.87;70.25
7940;BME280;4015;48.888;9.226;2023-02-19T12:37:20;158215.53;;;11.83;72.58
7940;BME280;4015;48.888;9.226;2023-02-19T12:42:50;158343.38;;;12.34;71.66
7940;BME280;4015;48.888;9.226;2023-02-19T12:45:35;158284.53;;;12.10;71.53
7940;BME280;4015;48.888;9.226;2023-02-19T12:48:28;158294.78;;;12.14;70.22
7940;BME280;4015;48.888;9.226;2023-02-19T12:51:16;158427.78;;;12.67;70.57
7940;BME280;4015;48.888;9.226;2023-02-19T12:54:00;158395.78;;;12.55;69.48
7940;BME280;4015;48.888;9.226;2023-02-19T12:56:53;158404.78;;;12.58;69.49
7940;BME280;4015;48.888;9.226;2023-02-19T13:02:24;158328.03;;;12.28;69.32
7940;BME280;4015;48.888;9.226;2023-02-19T13:05:14;158294.78;;;12.14;70.03
7940;BME280;4015;48.888;9.226;2023-02-19T13:07:58;158275.63;;;12.07;70.22
7940;BME280;4015;48.888;9.226;2023-02-19T13:10:31;158207.78;;;11.80;70.93
7940;BME280;4015;48.888;9.226;2023-02-19T13:13:02;158159.22;;;11.60;71.96
7940;BME280;4015;48.888;9.226;2023-02-19T13:15:34;158108.09;;;11.40;71.41
7940;BME280;4015;48.888;9.226;2023-02-19T13:18:04;158013.53;;;11.02;72.23
7940;BME280;4015;48.888;9.226;2023-02-19T13:20:34;157967.53;;;10.84;72.87
7940;BME280;4015;48.888;9.226;2023-02-19T13:23:20;157953.47;;;10.78;74.01
7940;BME280;4015;48.888;9.226;2023-02-19T13:29:28;157953.47;;;10.78;77.02
7940;BME280;4015;48.888;9.226;2023-02-19T13:37:12;158063.34;;;11.22;76.11
7940;BME280;4015;48.888;9.226;2023-02-19T13:39:47;158106.81;;;11.40;75.72
7940;BME280;4015;48.888;9.226;2023-02-19T13:42:29;158071.03;;;11.25;76.79
7940;BME280;4015;48.888;9.226;2023-02-19T13:44:56;158014.81;;;11.03;80.20
7940;BME280;4015;48.888;9.226;2023-02-19T13:50:26;157954.75;;;10.79;83.52
7940;BME280;4015;48.888;9.226;2023-02-19T13:52:54;157893.44;;;10.54;84.23
7940;BME280;4015;48.888;9.226;2023-02-19T13:55:42;157899.84;;;10.57;84.20
7940;BME280;4015;48.888;9.226;2023-02-19T14:01:01;158030.13;;;11.09;82.84
7940;BME280;4015;48.888;9.226;2023-02-19T14:03:53;158140.03;;;11.53;80.35
7940;BME280;4015;48.888;9.226;2023-02-19T14:14:49;158173.28;;;11.66;75.67
7940;BME280;4015;48.888;9.226;2023-02-19T14:17:36;158177.09;;;11.68;74.96
7940;BME280;4015;48.888;9.226;2023-02-19T14:25:38;158178.38;;;11.68;75.55
7940;BME280;4015;48.888;9.226;2023-02-19T14:28:13;158170.72;;;11.65;75.83
7940;BME280;4015;48.888;9.226;2023-02-19T14:30:50;158197.59;;;11.76;76.00
7940;BME280;4015;48.888;9.226;2023-02-19T14:33:20;158166.91;;;11.64;75.76
7940;BME280;4015;48.888;9.226;2023-02-19T14:35:50;158196.25;;;11.75;75.96
7940;BME280;4015;48.888;9.226;2023-02-19T14:38:46;158174.53;;;11.67;75.14
7940;BME280;4015;48.888;9.226;2023-02-19T14:41:14;158189.88;;;11.73;74.91
7940;BME280;4015;48.888;9.226;2023-02-19T14:43:42;158141.31;;;11.53;74.37
7940;BME280;4015;48.888;9.226;2023-02-19T14:46:22;158136.22;;;11.51;74.15
7940;BME280;4015;48.888;9.226;2023-02-19T14:48:49;158129.81;;;11.49;74.82
7940;BME280;4015;48.888;9.226;2023-02-19T14:51:38;158097.84;;;11.36;73.66
7940;BME280;4015;48.888;9.226;2023-02-19T14:54:19;158017.34;;;11.04;73.46
7940;BME280;4015;48.888;9.226;2023-02-19T14:56:50;158009.72;;;11.01;72.52
7940;BME280;4015;48.888;9.226;2023-02-19T14:59:21;157995.66;;;10.95;73.69
7940;BME280;4015;48.888;9.226;2023-02-19T15:02:15;158003.28;;;10.98;73.04
7940;BME280;4015;48.888;9.226;2023-02-19T15:04:42;158025.03;;;11.07;73.32
7940;BME280;4015;48.888;9.226;2023-02-19T15:07:12;157991.81;;;10.94;72.97
7940;BME280;4015;48.888;9.226;2023-02-19T15:09:43;157998.19;;;10.96;73.82